Time;durP1;ratioP1;P1;durP2;ratioP2;P2;SDS_P1;SDS_P2;PMS_P1;PMS_P2;Temp;Humidity;BMP_temperature;BMP_pressure;BME280_temperature;BME280_humidity;BME280_pressure;Samples;Min_cycle;Max_cycle;Signal;HPM_P1;HPM_P2
2022/12/28 00:01:48;;;;;;;43.40;7.90;;;;;;;;;;5036709;28;20036;-48
2022/12/28 00:04:15;;;;;;;82.00;10.50;;;;;;;;;;5037847;28;20037;-45
2022/12/28 00:06:41;;;;;;;55.80;8.82;;;;;;;;;;5037755;28;20064;-48
2022/12/28 00:09:09;;;;;;;40.47;6.90;;;;;;;;;;5038089;28;20041;-47
2022/12/28 00:11:36;;;;;;;49.72;7.38;;;;;;;;;;5034723;28;20037;-49
2022/12/28 00:14:03;;;;;;;41.08;7.95;;;;;;;;;;5036157;28;20045;-46
2022/12/28 00:16:31;;;;;;;59.10;8.05;;;;;;;;;;5036121;28;20033;-46
2022/12/28 00:18:59;;;;;;;51.63;8.15;;;;;;;;;;5036763;28;20045;-47
2022/12/28 00:21:26;;;;;;;32.40;6.78;;;;;;;;;;5035512;28;20068;-46
2022/12/28 00:23:57;;;;;;;41.17;7.78;;;;;;;;;;5035067;28;20041;-47
2022/12/28 00:26:25;;;;;;;59.85;8.68;;;;;;;;;;5036641;28;20087;-47
2022/12/28 00:28:51;;;;;;;41.85;7.13;;;;;;;;;;5035726;28;20510;-46
2022/12/28 00:31:25;;;;;;;51.13;8.05;;;;;;;;;;5035204;28;20045;-49
2022/12/28 00:33:53;;;;;;;36.05;7.15;;;;;;;;;;5039012;28;20136;-48
2022/12/28 00:36:20;;;;;;;48.65;8.02;;;;;;;;;;5037084;28;20549;-47
2022/12/28 00:38:47;;;;;;;57.55;9.75;;;;;;;;;;5035151;28;20423;-45
2022/12/28 00:41:13;;;;;;;44.33;8.00;;;;;;;;;;5038922;28;20041;-48
2022/12/28 00:43:41;;;;;;;48.88;9.00;;;;;;;;;;5034906;28;20052;-48
2022/12/28 00:46:08;;;;;;;68.68;9.75;;;;;;;;;;5035886;28;20221;-46
2022/12/28 00:48:34;;;;;;;46.45;7.47;;;;;;;;;;5036128;28;20049;-46
2022/12/28 00:51:05;;;;;;;31.35;7.22;;;;;;;;;;5038048;28;20045;-48
2022/12/28 00:53:32;;;;;;;43.40;9.30;;;;;;;;;;5038786;28;20076;-47
2022/12/28 00:56:15;;;;;;;35.50;7.57;;;;;;;;;;5038620;28;20045;-46
2022/12/28 00:58:42;;;;;;;58.22;9.23;;;;;;;;;;5039246;28;20059;-47
2022/12/28 01:01:27;;;;;;;52.38;8.73;;;;;;;;;;5038622;28;20037;-48
2022/12/28 01:03:56;;;;;;;38.45;9.13;;;;;;;;;;5041759;28;20052;-45
2022/12/28 01:06:24;;;;;;;62.63;9.35;;;;;;;;;;5039497;28;20040;-46
2022/12/28 01:08:50;;;;;;;48.90;8.35;;;;;;;;;;5036739;28;20052;-46
2022/12/28 01:11:19;;;;;;;46.42;8.65;;;;;;;;;;5040236;28;20044;-47
2022/12/28 01:13:46;;;;;;;70.78;10.02;;;;;;;;;;5039657;28;20145;-47
2022/12/28 01:16:33;;;;;;;71.97;10.48;;;;;;;;;;5038465;28;20063;-49
2022/12/28 01:19:01;;;;;;;54.30;8.32;;;;;;;;;;5039428;28;20044;-47
2022/12/28 01:21:28;;;;;;;30.13;6.68;;;;;;;;;;5042016;28;20055;-48
2022/12/28 01:23:56;;;;;;;38.45;7.68;;;;;;;;;;5036212;28;20447;-49
2022/12/28 01:26:22;;;;;;;50.97;7.80;;;;;;;;;;5038355;28;20128;-49
2022/12/28 01:28:49;;;;;;;72.47;10.65;;;;;;;;;;5039880;28;20045;-48
2022/12/28 01:31:16;;;;;;;80.18;10.43;;;;;;;;;;5037254;28;20160;-46
2022/12/28 01:33:43;;;;;;;69.18;10.35;;;;;;;;;;5040682;28;20051;-48
2022/12/28 01:36:14;;;;;;;45.03;9.32;;;;;;;;;;5038015;28;20514;-47
2022/12/28 01:38:41;;;;;;;57.00;9.80;;;;;;;;;;5043519;28;20069;-47
2022/12/28 01:41:27;;;;;;;83.82;11.65;;;;;;;;;;5036689;28;20045;-46
2022/12/28 01:43:53;;;;;;;73.80;12.05;;;;;;;;;;5041538;28;20127;-45
2022/12/28 01:46:23;;;;;;;68.90;10.77;;;;;;;;;;5037073;28;20122;-49
2022/12/28 01:49:01;;;;;;;56.40;9.18;;;;;;;;;;5037237;28;20413;-46
2022/12/28 01:51:30;;;;;;;52.90;8.68;;;;;;;;;;5038324;28;20052;-47
2022/12/28 01:53:58;;;;;;;38.92;8.75;;;;;;;;;;5036994;28;20041;-50
2022/12/28 01:56:25;;;;;;;44.78;8.15;;;;;;;;;;5037387;28;20087;-47
2022/12/28 01:58:52;;;;;;;58.00;10.55;;;;;;;;;;5041162;28;20140;-46
2022/12/28 02:01:19;;;;;;;66.82;10.18;;;;;;;;;;5038019;28;20042;-49
2022/12/28 02:03:46;;;;;;;43.25;8.52;;;;;;;;;;5040381;28;20411;-46
2022/12/28 02:06:13;;;;;;;61.85;11.00;;;;;;;;;;5036170;28;20071;-47
2022/12/28 02:08:41;;;;;;;53.25;8.93;;;;;;;;;;5036985;28;20045;-47
2022/12/28 02:11:11;;;;;;;48.08;9.02;;;;;;;;;;5036554;28;20150;-47
2022/12/28 02:13:37;;;;;;;59.70;10.13;;;;;;;;;;5033841;28;20107;-46
2022/12/28 02:16:04;;;;;;;48.13;10.45;;;;;;;;;;5039131;28;20044;-48
2022/12/28 02:18:31;;;;;;;47.10;8.45;;;;;;;;;;5034132;28;20389;-47
2022/12/28 02:21:03;;;;;;;42.95;8.75;;;;;;;;;;5039670;28;20506;-47
2022/12/28 02:23:30;;;;;;;45.90;8.20;;;;;;;;;;5042895;28;20069;-47
2022/12/28 02:26:15;;;;;;;38.05;7.90;;;;;;;;;;5037700;28;20038;-46
2022/12/28 02:29:00;;;;;;;63.95;10.38;;;;;;;;;;5036003;28;20053;-47
2022/12/28 02:31:32;;;;;;;71.93;10.23;;;;;;;;;;5036991;28;20446;-50
2022/12/28 02:34:08;;;;;;;33.40;8.15;;;;;;;;;;5065418;28;20077;-46
2022/12/28 02:36:38;;;;;;;54.55;9.55;;;;;;;;;;5035186;28;20053;-46
2022/12/28 02:39:07;;;;;;;40.60;8.57;;;;;;;;;;5040991;28;20045;-50
2022/12/28 02:41:35;;;;;;;47.65;8.85;;;;;;;;;;5038755;28;20112;-49
2022/12/28 02:44:02;;;;;;;77.18;11.00;;;;;;;;;;5037030;28;20048;-47
2022/12/28 02:52:11;;;;;;;41.45;8.68;;;;;;;;;;5037815;28;20116;-48
2022/12/28 02:57:55;;;;;;;32.40;7.53;;;;;;;;;;5044229;28;20157;-46
2022/12/28 03:00:24;;;;;;;38.88;8.38;;;;;;;;;;5037559;28;20068;-46
2022/12/28 03:03:20;;;;;;;61.13;9.85;;;;;;;;;;5034583;28;20044;-48
2022/12/28 03:08:53;;;;;;;55.70;10.05;;;;;;;;;;5039398;28;20513;-47
2022/12/28 03:11:22;;;;;;;50.22;9.68;;;;;;;;;;5039851;28;20136;-45
2022/12/28 03:13:55;;;;;;;63.40;10.73;;;;;;;;;;5033653;28;20503;-47
2022/12/28 03:16:22;;;;;;;79.97;12.95;;;;;;;;;;5031768;28;20153;-47
2022/12/28 03:32:54;;;;;;;48.83;11.15;;;;;;;;;;5034877;28;20549;-45
2022/12/28 03:35:25;;;;;;;49.42;9.90;;;;;;;;;;5036449;28;20427;-46
2022/12/28 03:37:55;;;;;;;65.57;12.82;;;;;;;;;;5036235;28;20487;-45
2022/12/28 03:40:26;;;;;;;63.85;12.02;;;;;;;;;;5035642;28;20071;-48
2022/12/28 03:45:42;;;;;;;61.10;12.13;;;;;;;;;;5032156;28;20068;-45
2022/12/28 03:48:14;;;;;;;67.63;11.63;;;;;;;;;;5039072;28;20037;-46
2022/12/28 03:50:44;;;;;;;62.78;12.95;;;;;;;;;;5034257;28;20060;-46
2022/12/28 03:53:13;;;;;;;54.97;10.85;;;;;;;;;;5037801;28;20492;-48
2022/12/28 03:55:42;;;;;;;76.90;13.07;;;;;;;;;;5041630;28;20092;-47
2022/12/28 03:58:09;;;;;;;53.05;10.02;;;;;;;;;;5035197;28;20134;-47
2022/12/28 04:00:36;;;;;;;47.35;10.70;;;;;;;;;;5034061;28;20136;-45
2022/12/28 04:03:02;;;;;;;59.20;11.85;;;;;;;;;;5033885;28;20478;-47
2022/12/28 04:05:29;;;;;;;38.00;10.15;;;;;;;;;;5037267;28;20049;-47
2022/12/28 04:07:56;;;;;;;43.53;10.23;;;;;;;;;;5034230;28;20232;-47
2022/12/28 04:10:23;;;;;;;71.32;12.77;;;;;;;;;;5040000;28;20045;-45
2022/12/28 04:12:53;;;;;;;49.92;10.32;;;;;;;;;;5035924;28;20050;-46
2022/12/28 04:15:42;;;;;;;71.55;12.57;;;;;;;;;;5034642;28;20407;-46
2022/12/28 04:18:09;;;;;;;68.20;12.20;;;;;;;;;;5036457;28;20125;-47
2022/12/28 04:20:37;;;;;;;52.03;11.38;;;;;;;;;;5035845;28;20044;-47
2022/12/28 04:23:03;;;;;;;57.05;11.13;;;;;;;;;;5035602;28;20124;-46
2022/12/28 04:25:30;;;;;;;65.80;12.77;;;;;;;;;;5038500;28;20052;-45
2022/12/28 04:27:56;;;;;;;39.53;10.77;;;;;;;;;;5045039;28;20041;-49
2022/12/28 04:30:43;;;;;;;68.43;13.98;;;;;;;;;;5043919;28;20568;-47
2022/12/28 04:33:10;;;;;;;48.13;11.07;;;;;;;;;;5038219;28;20068;-45
2022/12/28 04:35:37;;;;;;;79.78;13.25;;;;;;;;;;5040894;28;20052;-47
2022/12/28 04:38:03;;;;;;;31.73;10.43;;;;;;;;;;5042292;28;20486;-46
2022/12/28 04:40:29;;;;;;;64.28;12.93;;;;;;;;;;5039249;28;20138;-48
2022/12/28 04:42:56;;;;;;;61.28;12.30;;;;;;;;;;5039587;28;20525;-48
2022/12/28 04:45:22;;;;;;;53.70;11.38;;;;;;;;;;5038850;28;20065;-49
2022/12/28 04:47:49;;;;;;;52.28;12.50;;;;;;;;;;5041047;28;20521;-47
2022/12/28 04:50:15;;;;;;;62.45;12.13;;;;;;;;;;5038487;28;20057;-45
2022/12/28 04:52:42;;;;;;;68.35;13.48;;;;;;;;;;5038281;28;20072;-48
2022/12/28 04:55:08;;;;;;;56.67;12.23;;;;;;;;;;5040017;28;20046;-47
2022/12/28 04:57:55;;;;;;;39.67;10.63;;;;;;;;;;5042832;28;20076;-46
2022/12/28 05:00:21;;;;;;;58.42;12.30;;;;;;;;;;5040938;28;20067;-49
2022/12/28 05:02:48;;;;;;;55.13;12.27;;;;;;;;;;5035477;28;20407;-47
2022/12/28 05:05:15;;;;;;;45.25;11.23;;;;;;;;;;5041787;28;20048;-45
2022/12/28 05:07:41;;;;;;;75.18;14.27;;;;;;;;;;5041217;28;20037;-47
2022/12/28 05:10:08;;;;;;;69.07;13.77;;;;;;;;;;5039182;28;20408;-47
2022/12/28 05:12:34;;;;;;;59.22;13.38;;;;;;;;;;5036997;28;20057;-48
2022/12/28 05:15:00;;;;;;;60.22;12.88;;;;;;;;;;5038054;28;20399;-46
2022/12/28 05:17:27;;;;;;;49.08;12.35;;;;;;;;;;5040541;28;20042;-47
2022/12/28 05:19:53;;;;;;;70.05;14.70;;;;;;;;;;5040401;28;20086;-49
2022/12/28 05:22:20;;;;;;;56.78;13.70;;;;;;;;;;5039070;28;20437;-47
2022/12/28 05:24:47;;;;;;;79.70;15.07;;;;;;;;;;5035825;28;20045;-47
2022/12/28 05:27:13;;;;;;;60.58;13.55;;;;;;;;;;5041150;28;20053;-46
2022/12/28 05:29:39;;;;;;;54.22;13.68;;;;;;;;;;5037394;28;20691;-45
2022/12/28 05:32:06;;;;;;;63.45;14.98;;;;;;;;;;5040036;28;20483;-48
2022/12/28 05:34:32;;;;;;;74.63;14.82;;;;;;;;;;5037579;28;20464;-46
2022/12/28 05:36:59;;;;;;;46.70;14.23;;;;;;;;;;5041757;28;20037;-48
2022/12/28 05:39:26;;;;;;;48.40;12.77;;;;;;;;;;5040734;28;20049;-47
2022/12/28 05:41:52;;;;;;;78.10;15.20;;;;;;;;;;5034603;28;20038;-46
2022/12/28 05:44:19;;;;;;;63.53;15.35;;;;;;;;;;5041818;28;20515;-47
2022/12/28 05:46:45;;;;;;;71.38;15.23;;;;;;;;;;5039903;28;20033;-48
2022/12/28 05:49:12;;;;;;;68.32;14.90;;;;;;;;;;5040379;28;20132;-47
2022/12/28 05:51:38;;;;;;;65.45;15.95;;;;;;;;;;5036326;28;20487;-48
2022/12/28 05:54:05;;;;;;;57.60;16.65;;;;;;;;;;5037669;28;20051;-47
2022/12/28 05:56:32;;;;;;;91.53;19.80;;;;;;;;;;5039922;28;20496;-48
2022/12/28 05:58:59;;;;;;;59.00;18.00;;;;;;;;;;5041743;28;20037;-45
2022/12/28 06:01:27;;;;;;;88.18;17.83;;;;;;;;;;5037013;28;20045;-48
2022/12/28 06:03:55;;;;;;;73.68;17.50;;;;;;;;;;5036494;28;20061;-47
2022/12/28 06:06:22;;;;;;;52.70;15.70;;;;;;;;;;5041954;28;20514;-50
2022/12/28 06:08:49;;;;;;;61.45;15.00;;;;;;;;;;5034627;28;20048;-49
2022/12/28 06:11:16;;;;;;;66.90;15.57;;;;;;;;;;5036258;28;20107;-46
2022/12/28 06:13:43;;;;;;;68.55;15.48;;;;;;;;;;5029479;28;20084;-46
2022/12/28 06:16:14;;;;;;;52.80;14.25;;;;;;;;;;5041519;28;20526;-46
2022/12/28 06:18:41;;;;;;;79.32;16.42;;;;;;;;;;5039816;28;20053;-46
2022/12/28 06:21:10;;;;;;;67.35;16.13;;;;;;;;;;5035705;28;20037;-45
2022/12/28 06:23:36;;;;;;;66.18;15.52;;;;;;;;;;5040281;28;20056;-48
2022/12/28 06:26:04;;;;;;;67.85;16.83;;;;;;;;;;5038260;28;20047;-46
2022/12/28 06:28:30;;;;;;;72.68;18.05;;;;;;;;;;5040354;28;20059;-48
2022/12/28 06:31:04;;;;;;;61.65;17.20;;;;;;;;;;5037251;28;20103;-48
2022/12/28 06:33:31;;;;;;;77.45;16.63;;;;;;;;;;5037070;28;20096;-48
2022/12/28 06:35:57;;;;;;;62.97;16.98;;;;;;;;;;5036953;28;21190;-48
2022/12/28 06:38:25;;;;;;;66.03;17.02;;;;;;;;;;5039421;28;20565;-46
2022/12/28 06:40:52;;;;;;;98.65;19.67;;;;;;;;;;5036033;28;20041;-47
2022/12/28 06:43:40;;;;;;;69.18;17.20;;;;;;;;;;5036987;28;20080;-46
2022/12/28 06:46:06;;;;;;;70.93;17.42;;;;;;;;;;5039443;28;20061;-47
2022/12/28 06:48:33;;;;;;;83.75;19.30;;;;;;;;;;5036562;28;20589;-47
2022/12/28 06:51:04;;;;;;;77.43;20.08;;;;;;;;;;5034825;28;20492;-47
2022/12/28 06:53:32;;;;;;;68.95;18.95;;;;;;;;;;5040314;28;20057;-48
2022/12/28 06:56:00;;;;;;;59.22;18.65;;;;;;;;;;5037786;28;20040;-46
2022/12/28 06:58:27;;;;;;;77.53;20.13;;;;;;;;;;5034736;28;20041;-47
2022/12/28 07:00:53;;;;;;;76.55;18.40;;;;;;;;;;5035462;28;20045;-47
2022/12/28 07:03:21;;;;;;;59.63;17.63;;;;;;;;;;5038711;28;20048;-46
2022/12/28 07:05:47;;;;;;;65.90;19.50;;;;;;;;;;5037026;28;20679;-46
2022/12/28 07:08:14;;;;;;;76.45;17.95;;;;;;;;;;5035568;28;20037;-45
2022/12/28 07:10:40;;;;;;;78.35;18.52;;;;;;;;;;5036554;28;20049;-51
2022/12/28 07:13:07;;;;;;;62.53;17.70;;;;;;;;;;5037247;28;20426;-47
2022/12/28 07:15:34;;;;;;;68.68;19.08;;;;;;;;;;5036182;28;20048;-47
2022/12/28 07:18:01;;;;;;;56.15;16.95;;;;;;;;;;5038583;28;20045;-46
2022/12/28 07:20:27;;;;;;;59.38;19.10;;;;;;;;;;5037633;28;20454;-48
2022/12/28 07:22:54;;;;;;;96.70;20.45;;;;;;;;;;5037550;28;20492;-47
2022/12/28 07:25:20;;;;;;;87.95;19.85;;;;;;;;;;5040893;28;20045;-50
2022/12/28 07:27:47;;;;;;;80.10;19.90;;;;;;;;;;5042128;28;20044;-47
2022/12/28 07:30:13;;;;;;;85.10;20.75;;;;;;;;;;5034797;28;20041;-46
2022/12/28 07:32:40;;;;;;;86.28;20.73;;;;;;;;;;5039052;28;20053;-49
2022/12/28 07:35:07;;;;;;;64.43;18.20;;;;;;;;;;5036666;28;20049;-49
2022/12/28 07:37:33;;;;;;;93.47;19.48;;;;;;;;;;5037966;28;20045;-48
2022/12/28 07:40:00;;;;;;;72.18;19.13;;;;;;;;;;5036453;28;20132;-49
2022/12/28 07:42:29;;;;;;;56.72;18.52;;;;;;;;;;5038020;28;20072;-46
2022/12/28 07:44:56;;;;;;;89.80;21.75;;;;;;;;;;5038962;28;20049;-45
2022/12/28 07:47:22;;;;;;;61.92;19.92;;;;;;;;;;5036174;28;20053;-47
2022/12/28 07:49:48;;;;;;;69.80;19.25;;;;;;;;;;5035252;28;20059;-45
2022/12/28 07:52:15;;;;;;;96.00;21.08;;;;;;;;;;5036183;28;20037;-46
2022/12/28 07:54:41;;;;;;;65.57;18.45;;;;;;;;;;5036365;28;20049;-50
2022/12/28 07:57:08;;;;;;;79.13;19.75;;;;;;;;;;5035976;28;20045;-48
2022/12/28 07:59:35;;;;;;;68.32;18.48;;;;;;;;;;5034546;28;20049;-47
2022/12/28 08:02:01;;;;;;;62.40;17.08;;;;;;;;;;5037915;28;21043;-46
2022/12/28 08:04:28;;;;;;;79.13;18.98;;;;;;;;;;5036312;28;20120;-46
2022/12/28 08:06:54;;;;;;;60.33;18.02;;;;;;;;;;5036501;28;20050;-48
2022/12/28 08:09:21;;;;;;;60.85;17.88;;;;;;;;;;5033485;28;20383;-47
2022/12/28 08:11:48;;;;;;;64.40;18.83;;;;;;;;;;5040323;28;20087;-46
2022/12/28 08:14:14;;;;;;;73.28;17.95;;;;;;;;;;5036082;28;20037;-50
2022/12/28 08:16:42;;;;;;;70.07;18.40;;;;;;;;;;5037549;28;20822;-45
2022/12/28 08:19:09;;;;;;;67.68;17.80;;;;;;;;;;5036916;28;20041;-47
2022/12/28 08:21:40;;;;;;;58.72;16.08;;;;;;;;;;5035377;28;20052;-45
2022/12/28 08:24:07;;;;;;;73.68;18.20;;;;;;;;;;5034832;28;20545;-47
2022/12/28 08:26:37;;;;;;;62.95;17.08;;;;;;;;;;5040360;28;20037;-47
2022/12/28 08:29:06;;;;;;;77.53;20.33;;;;;;;;;;5034385;28;20069;-49
2022/12/28 08:31:33;;;;;;;84.68;19.25;;;;;;;;;;5034815;28;20048;-47
2022/12/28 08:34:01;;;;;;;54.55;16.10;;;;;;;;;;5038556;28;20064;-47
2022/12/28 08:36:28;;;;;;;66.60;16.77;;;;;;;;;;5038085;28;20410;-47
2022/12/28 08:38:56;;;;;;;60.75;16.85;;;;;;;;;;5032499;28;20048;-46
2022/12/28 08:41:23;;;;;;;48.22;15.40;;;;;;;;;;5038636;28;20049;-48
2022/12/28 08:43:51;;;;;;;62.33;16.48;;;;;;;;;;5036223;28;20048;-46
2022/12/28 08:46:19;;;;;;;75.63;17.92;;;;;;;;;;5036255;28;20041;-45
2022/12/28 08:48:46;;;;;;;67.90;17.85;;;;;;;;;;5033554;28;20404;-47
2022/12/28 08:51:14;;;;;;;65.10;16.33;;;;;;;;;;5036347;28;20037;-46
2022/12/28 08:53:41;;;;;;;53.88;15.75;;;;;;;;;;5037389;28;20495;-50
2022/12/28 08:56:09;;;;;;;51.08;13.93;;;;;;;;;;5034797;28;20041;-45
2022/12/28 08:58:36;;;;;;;82.13;16.10;;;;;;;;;;5035593;28;20065;-47
2022/12/28 09:01:04;;;;;;;66.75;15.63;;;;;;;;;;5036436;28;20043;-47
2022/12/28 09:03:30;;;;;;;39.53;13.13;;;;;;;;;;5037494;28;20049;-46
2022/12/28 09:06:00;;;;;;;56.28;13.63;;;;;;;;;;5032111;28;20046;-51
2022/12/28 09:08:26;;;;;;;46.53;12.02;;;;;;;;;;5035407;28;20038;-47
2022/12/28 09:10:53;;;;;;;57.22;13.65;;;;;;;;;;5039401;28;20045;-48
2022/12/28 09:13:19;;;;;;;76.35;14.13;;;;;;;;;;5041043;28;20053;-46
2022/12/28 09:15:54;;;;;;;47.15;12.40;;;;;;;;;;5039769;28;20571;-45
2022/12/28 09:18:21;;;;;;;55.88;13.10;;;;;;;;;;5036749;28;20040;-47
2022/12/28 09:20:47;;;;;;;78.75;15.07;;;;;;;;;;5040715;28;20044;-48
2022/12/28 09:23:14;;;;;;;52.92;13.30;;;;;;;;;;5038705;28;20056;-46
2022/12/28 09:25:40;;;;;;;50.15;12.55;;;;;;;;;;5038115;28;20048;-47
2022/12/28 09:28:07;;;;;;;60.17;14.55;;;;;;;;;;5039839;28;20533;-49
2022/12/28 09:30:33;;;;;;;52.70;13.07;;;;;;;;;;5040939;28;20052;-48
2022/12/28 09:35:45;;;;;;;58.17;13.75;;;;;;;;;;5036687;28;20094;-47
2022/12/28 09:38:11;;;;;;;48.67;13.27;;;;;;;;;;5037743;28;20038;-48
2022/12/28 09:40:38;;;;;;;67.78;14.88;;;;;;;;;;5039464;28;20084;-47
2022/12/28 09:43:04;;;;;;;40.22;12.82;;;;;;;;;;5040546;28;20044;-45
2022/12/28 09:45:31;;;;;;;51.03;13.05;;;;;;;;;;5038582;28;20050;-47
2022/12/28 09:48:01;;;;;;;54.72;14.00;;;;;;;;;;5037762;28;20049;-46
2022/12/28 09:50:30;;;;;;;43.95;11.93;;;;;;;;;;5038116;28;20055;-48
2022/12/28 09:53:05;;;;;;;46.00;11.80;;;;;;;;;;5038365;28;20072;-46
2022/12/28 09:55:36;;;;;;;58.00;12.40;;;;;;;;;;5040392;28;20076;-49
2022/12/28 09:58:04;;;;;;;58.42;13.57;;;;;;;;;;5038076;28;20088;-50
2022/12/28 10:00:37;;;;;;;57.53;12.63;;;;;;;;;;5040066;28;20048;-48
2022/12/28 10:03:06;;;;;;;41.63;13.27;;;;;;;;;;5035894;28;20499;-48
2022/12/28 10:05:33;;;;;;;43.72;14.00;;;;;;;;;;5037511;28;20069;-48
2022/12/28 10:07:59;;;;;;;56.15;13.52;;;;;;;;;;5038782;28;20120;-48
2022/12/28 10:10:26;;;;;;;67.22;13.00;;;;;;;;;;5039787;28;20061;-47
2022/12/28 10:12:53;;;;;;;44.85;12.02;;;;;;;;;;5039931;28;20136;-49
2022/12/28 10:15:21;;;;;;;60.30;13.15;;;;;;;;;;5034734;28;20051;-46
2022/12/28 10:17:47;;;;;;;53.10;12.00;;;;;;;;;;5037408;28;20037;-46
2022/12/28 10:20:15;;;;;;;64.95;14.63;;;;;;;;;;5037611;28;20072;-46
2022/12/28 10:22:42;;;;;;;83.20;16.40;;;;;;;;;;5041651;28;20038;-47
2022/12/28 10:25:17;;;;;;;56.10;15.20;;;;;;;;;;5040943;28;20052;-46
2022/12/28 10:27:43;;;;;;;72.00;14.68;;;;;;;;;;5035047;28;20487;-48
2022/12/28 10:30:14;;;;;;;67.90;14.20;;;;;;;;;;5038843;28;20037;-48
2022/12/28 10:32:51;;;;;;;66.40;13.77;;;;;;;;;;5038719;28;20044;-47
2022/12/28 10:35:35;;;;;;;52.95;12.18;;;;;;;;;;5034807;28;20049;-48
2022/12/28 10:38:03;;;;;;;43.35;11.13;;;;;;;;;;5039020;28;20037;-47
2022/12/28 10:40:31;;;;;;;64.70;15.95;;;;;;;;;;5038970;28;20088;-48
2022/12/28 10:42:59;;;;;;;49.80;13.32;;;;;;;;;;5037622;28;20103;-46
2022/12/28 10:45:47;;;;;;;57.50;13.18;;;;;;;;;;5034244;28;20073;-46
2022/12/28 10:48:16;;;;;;;47.78;11.48;;;;;;;;;;5036690;28;20041;-49
2022/12/28 10:50:46;;;;;;;59.03;12.43;;;;;;;;;;5038726;28;20586;-48
2022/12/28 10:53:18;;;;;;;63.40;12.13;;;;;;;;;;5034576;28;20067;-48
2022/12/28 10:55:44;;;;;;;55.38;12.52;;;;;;;;;;5037132;28;20111;-47
2022/12/28 10:58:15;;;;;;;58.78;13.18;;;;;;;;;;5040613;28;20045;-49
2022/12/28 11:01:01;;;;;;;33.90;9.75;;;;;;;;;;5039648;28;20151;-47
2022/12/28 11:03:34;;;;;;;44.25;10.52;;;;;;;;;;5039419;28;20570;-47
2022/12/28 11:06:06;;;;;;;43.43;10.07;;;;;;;;;;5035088;28;20122;-47
2022/12/28 11:08:33;;;;;;;52.35;10.73;;;;;;;;;;5039635;28;20046;-47
2022/12/28 11:10:59;;;;;;;59.65;11.77;;;;;;;;;;5037984;28;20048;-48
2022/12/28 11:13:26;;;;;;;57.63;11.75;;;;;;;;;;5037372;28;20064;-47
2022/12/28 11:15:53;;;;;;;41.67;10.38;;;;;;;;;;5033725;28;20132;-46
2022/12/28 11:18:19;;;;;;;59.55;12.25;;;;;;;;;;5039759;28;20048;-47
2022/12/28 11:20:52;;;;;;;53.80;11.27;;;;;;;;;;5037104;28;20493;-48
2022/12/28 11:23:23;;;;;;;41.35;9.30;;;;;;;;;;5037189;28;20099;-47
2022/12/28 11:25:50;;;;;;;52.92;10.95;;;;;;;;;;5036481;28;20037;-46
2022/12/28 11:28:18;;;;;;;51.03;10.18;;;;;;;;;;5037748;28;20045;-46
2022/12/28 11:30:48;;;;;;;53.38;11.38;;;;;;;;;;5038395;28;20072;-46
2022/12/28 11:33:33;;;;;;;52.88;10.07;;;;;;;;;;5034606;28;20068;-48
2022/12/28 11:36:00;;;;;;;41.20;8.90;;;;;;;;;;5036453;28;20041;-48
2022/12/28 11:38:41;;;;;;;48.55;10.10;;;;;;;;;;5038291;28;20049;-47
2022/12/28 11:41:30;;;;;;;49.17;8.90;;;;;;;;;;5037053;28;20505;-48
2022/12/28 11:44:03;;;;;;;38.03;10.32;;;;;;;;;;5033479;28;20040;-46
2022/12/28 11:46:30;;;;;;;63.78;11.27;;;;;;;;;;5035947;28;20124;-45
2022/12/28 11:49:01;;;;;;;57.63;10.50;;;;;;;;;;5039417;28;20041;-48
2022/12/28 11:51:29;;;;;;;37.25;10.15;;;;;;;;;;5037001;28;20391;-46
2022/12/28 11:53:59;;;;;;;36.95;11.13;;;;;;;;;;5032457;28;20041;-48
2022/12/28 11:56:35;;;;;;;39.97;9.85;;;;;;;;;;5038745;28;20474;-48
2022/12/28 11:59:03;;;;;;;37.72;10.85;;;;;;;;;;5039888;28;20090;-47
2022/12/28 12:01:32;;;;;;;83.50;13.52;;;;;;;;;;5035666;28;20041;-47
2022/12/28 12:03:58;;;;;;;60.05;11.63;;;;;;;;;;5035510;28;20135;-49
2022/12/28 12:06:40;;;;;;;42.42;10.30;;;;;;;;;;5036066;28;20496;-48
2022/12/28 12:09:27;;;;;;;40.28;9.55;;;;;;;;;;5031969;28;20038;-48
2022/12/28 12:11:56;;;;;;;41.22;10.38;;;;;;;;;;5036438;28;20044;-49
2022/12/28 12:14:38;;;;;;;40.70;9.88;;;;;;;;;;5032109;28;20482;-48
2022/12/28 12:17:20;;;;;;;43.25;11.07;;;;;;;;;;5037888;28;20388;-47
2022/12/28 12:19:48;;;;;;;43.13;10.48;;;;;;;;;;5033846;28;20026;-47
2022/12/28 12:22:20;;;;;;;49.33;10.40;;;;;;;;;;5035990;28;20051;-47
2022/12/28 12:24:56;;;;;;;79.38;12.75;;;;;;;;;;5031342;28;20137;-46
2022/12/28 12:27:35;;;;;;;34.92;9.73;;;;;;;;;;5036299;28;20518;-47
2022/12/28 12:30:04;;;;;;;68.65;12.23;;;;;;;;;;5034916;28;20049;-47
2022/12/28 12:32:40;;;;;;;41.45;9.98;;;;;;;;;;5033737;28;20045;-48
2022/12/28 12:35:07;;;;;;;64.78;12.00;;;;;;;;;;5035454;28;20065;-49
2022/12/28 12:37:43;;;;;;;50.60;10.88;;;;;;;;;;5039516;28;20591;-48
2022/12/28 12:40:28;;;;;;;59.53;11.60;;;;;;;;;;5037618;28;20083;-47
2022/12/28 12:43:07;;;;;;;52.90;12.00;;;;;;;;;;5034761;28;20046;-46
2022/12/28 12:45:46;;;;;;;57.38;11.98;;;;;;;;;;5038001;28;20041;-49
2022/12/28 12:48:31;;;;;;;57.58;11.43;;;;;;;;;;5038997;28;20049;-47
2022/12/28 12:51:21;;;;;;;59.78;12.68;;;;;;;;;;5038701;28;20050;-46
2022/12/28 12:54:05;;;;;;;58.50;11.38;;;;;;;;;;4991822;28;20141;-47
2022/12/28 12:56:41;;;;;;;49.92;10.20;;;;;;;;;;5008013;28;20129;-47
2022/12/28 12:59:18;;;;;;;47.75;10.10;;;;;;;;;;5004256;28;20513;-48
2022/12/28 13:01:52;;;;;;;50.65;11.30;;;;;;;;;;5007970;28;20100;-47
2022/12/28 13:04:21;;;;;;;48.33;10.50;;;;;;;;;;5008696;28;20068;-50
2022/12/28 13:06:49;;;;;;;61.25;11.68;;;;;;;;;;5007996;28;20100;-46
2022/12/28 13:09:17;;;;;;;56.47;11.80;;;;;;;;;;5007792;28;20065;-47
2022/12/28 13:11:45;;;;;;;53.67;12.13;;;;;;;;;;5007687;28;20520;-48
2022/12/28 13:14:19;;;;;;;57.25;11.32;;;;;;;;;;5008102;28;20558;-47
2022/12/28 13:16:50;;;;;;;51.22;11.50;;;;;;;;;;5007383;28;20049;-45
2022/12/28 13:19:19;;;;;;;59.47;11.43;;;;;;;;;;5009211;28;20047;-48
2022/12/28 13:21:49;;;;;;;58.30;10.80;;;;;;;;;;5007923;28;20405;-47
2022/12/28 13:24:28;;;;;;;57.10;11.77;;;;;;;;;;5007353;28;20083;-47
2022/12/28 13:26:57;;;;;;;47.42;9.98;;;;;;;;;;5007688;28;20188;-46
2022/12/28 13:29:25;;;;;;;47.70;9.15;;;;;;;;;;5008012;28;20420;-47
2022/12/28 13:31:51;;;;;;;53.30;10.38;;;;;;;;;;5033952;28;20122;-48
2022/12/28 13:34:21;;;;;;;52.03;10.80;;;;;;;;;;5041302;28;20159;-47
2022/12/28 13:36:53;;;;;;;59.20;11.02;;;;;;;;;;5040377;28;20041;-48
2022/12/28 13:39:20;;;;;;;60.35;11.57;;;;;;;;;;5039690;28;20033;-45
2022/12/28 13:41:51;;;;;;;49.45;11.35;;;;;;;;;;5039919;28;20037;-48
2022/12/28 13:44:17;;;;;;;51.42;10.48;;;;;;;;;;5041654;28;20388;-47
2022/12/28 13:46:49;;;;;;;73.75;12.88;;;;;;;;;;5038264;28;20715;-48
2022/12/28 13:49:16;;;;;;;70.68;12.38;;;;;;;;;;5039527;28;20053;-47
2022/12/28 13:51:43;;;;;;;52.15;10.02;;;;;;;;;;5036799;28;20041;-50
2022/12/28 13:54:18;;;;;;;57.03;11.90;;;;;;;;;;5037799;28;20119;-47
2022/12/28 13:56:45;;;;;;;57.35;11.32;;;;;;;;;;5038851;28;20063;-45
2022/12/28 13:59:16;;;;;;;55.92;11.90;;;;;;;;;;5038481;28;20056;-46
2022/12/28 14:01:44;;;;;;;66.80;13.63;;;;;;;;;;5037731;28;20064;-48
2022/12/28 14:04:15;;;;;;;52.33;12.10;;;;;;;;;;5038923;28;20104;-47
2022/12/28 14:07:02;;;;;;;49.45;11.70;;;;;;;;;;5040707;28;20053;-48
2022/12/28 14:09:28;;;;;;;36.08;10.00;;;;;;;;;;5039209;28;20045;-48
2022/12/28 14:11:56;;;;;;;44.20;11.32;;;;;;;;;;5034112;28;20048;-47
2022/12/28 14:14:23;;;;;;;45.45;10.60;;;;;;;;;;5040906;28;20037;-47
2022/12/28 14:16:49;;;;;;;53.70;11.85;;;;;;;;;;5039928;28;20057;-46
2022/12/28 14:19:16;;;;;;;65.15;11.90;;;;;;;;;;5039932;28;20056;-46
2022/12/28 14:21:44;;;;;;;44.42;10.60;;;;;;;;;;5035508;28;20041;-46
2022/12/28 14:24:12;;;;;;;65.10;12.40;;;;;;;;;;5040145;28;20033;-47
2022/12/28 14:26:43;;;;;;;85.00;15.20;;;;;;;;;;5039045;28;20472;-47
2022/12/28 14:29:12;;;;;;;52.58;12.35;;;;;;;;;;5037512;28;20030;-48
2022/12/28 14:31:39;;;;;;;71.03;13.25;;;;;;;;;;5037695;28;20120;-46
2022/12/28 14:34:05;;;;;;;69.10;12.38;;;;;;;;;;5037853;28;20063;-49
2022/12/28 14:36:37;;;;;;;71.50;12.93;;;;;;;;;;5037946;28;20049;-48
2022/12/28 14:39:04;;;;;;;52.28;12.40;;;;;;;;;;5034319;28;20048;-48
2022/12/28 14:41:51;;;;;;;42.45;11.30;;;;;;;;;;5037372;28;20037;-48
2022/12/28 14:44:24;;;;;;;66.82;14.25;;;;;;;;;;5032548;28;20410;-47
2022/12/28 14:46:53;;;;;;;62.67;15.63;;;;;;;;;;5036521;28;20037;-48
2022/12/28 14:49:28;;;;;;;39.90;11.48;;;;;;;;;;5039965;28;20069;-47
2022/12/28 14:52:07;;;;;;;66.88;12.80;;;;;;;;;;5036293;28;20037;-46
2022/12/28 14:54:49;;;;;;;38.60;10.73;;;;;;;;;;5040732;28;20701;-47
2022/12/28 14:57:22;;;;;;;70.32;12.43;;;;;;;;;;5036860;28;20128;-47
2022/12/28 14:59:54;;;;;;;70.32;12.52;;;;;;;;;;5034570;28;20037;-46
2022/12/28 15:02:33;;;;;;;74.18;13.07;;;;;;;;;;5040442;28;20106;-48
2022/12/28 15:05:00;;;;;;;43.58;10.50;;;;;;;;;;5038765;28;20046;-47